sensor_id;sensor_type;location;lat;lon;timestamp;pressure;altitude;pressure_sealevel;temperature;humidity
72585;BME280;60618;40.084;32.908;2023-03-13T00:01:55;88959.09;;;3.79;82.03
72585;BME280;60618;40.084;32.908;2023-03-13T00:04:22;88961.75;;;3.79;82.17
72585;BME280;60618;40.084;32.908;2023-03-13T00:06:49;88965.38;;;3.90;82.32
72585;BME280;60618;40.084;32.908;2023-03-13T00:09:17;88951.47;;;3.81;83.28
72585;BME280;60618;40.084;32.908;2023-03-13T00:11:44;88947.41;;;3.80;82.27
72585;BME280;60618;40.084;32.908;2023-03-13T00:14:11;88951.59;;;3.86;82.22
72585;BME280;60618;40.084;32.908;2023-03-13T00:16:38;88962.59;;;3.76;81.00
72585;BME280;60618;40.084;32.908;2023-03-13T00:19:06;88961.28;;;3.80;80.93
72585;BME280;60618;40.084;32.908;2023-03-13T00:21:34;88966.13;;;3.73;80.13
72585;BME280;60618;40.084;32.908;2023-03-13T00:24:02;88969.91;;;3.81;79.79
72585;BME280;60618;40.084;32.908;2023-03-13T00:26:29;88963.94;;;3.80;79.11
72585;BME280;60618;40.084;32.908;2023-03-13T00:28:56;88965.84;;;3.70;79.29
72585;BME280;60618;40.084;32.908;2023-03-13T00:31:28;88953.13;;;3.69;80.00
72585;BME280;60618;40.084;32.908;2023-03-13T00:34:00;88960.28;;;3.78;80.27
72585;BME280;60618;40.084;32.908;2023-03-13T00:36:30;88950.91;;;3.77;81.00
72585;BME280;60618;40.084;32.908;2023-03-13T00:38:58;88957.66;;;3.78;80.73
72585;BME280;60618;40.084;32.908;2023-03-13T00:41:30;88950.63;;;3.75;79.87
72585;BME280;60618;40.084;32.908;2023-03-13T00:43:58;88960.41;;;3.74;79.95
72585;BME280;60618;40.084;32.908;2023-03-13T00:46:26;88963.78;;;3.65;79.74
72585;BME280;60618;40.084;32.908;2023-03-13T00:48:54;88951.50;;;3.72;80.63
72585;BME280;60618;40.084;32.908;2023-03-13T00:51:22;88951.63;;;3.68;80.28
72585;BME280;60618;40.084;32.908;2023-03-13T00:53:49;88956.50;;;3.69;80.00
72585;BME280;60618;40.084;32.908;2023-03-13T00:56:17;88961.44;;;3.67;80.23
72585;BME280;60618;40.084;32.908;2023-03-13T00:58:47;88962.34;;;3.55;80.74
72585;BME280;60618;40.084;32.908;2023-03-13T01:01:27;88957.38;;;3.57;81.60
72585;BME280;60618;40.084;32.908;2023-03-13T01:03:57;88954.16;;;3.53;80.78
72585;BME280;60618;40.084;32.908;2023-03-13T01:06:27;88955.91;;;3.47;80.22
72585;BME280;60618;40.084;32.908;2023-03-13T01:08:55;88960.00;;;3.48;80.65
72585;BME280;60618;40.084;32.908;2023-03-13T01:11:25;88960.91;;;3.45;80.59
72585;BME280;60618;40.084;32.908;2023-03-13T01:13:57;88962.53;;;3.42;80.33
72585;BME280;60618;40.084;32.908;2023-03-13T01:16:25;88960.91;;;3.45;81.28
72585;BME280;60618;40.084;32.908;2023-03-13T01:18:54;88969.69;;;3.51;81.85
72585;BME280;60618;40.084;32.908;2023-03-13T01:21:23;88976.53;;;3.39;82.97
72585;BME280;60618;40.084;32.908;2023-03-13T01:23:52;88977.59;;;3.42;83.80
72585;BME280;60618;40.084;32.908;2023-03-13T01:26:19;88977.59;;;3.42;84.30
72585;BME280;60618;40.084;32.908;2023-03-13T01:28:46;88974.63;;;3.40;84.66
72585;BME280;60618;40.084;32.908;2023-03-13T01:31:26;88981.69;;;3.34;85.60
72585;BME280;60618;40.084;32.908;2023-03-13T01:33:56;88985.75;;;3.26;87.88
72585;BME280;60618;40.084;32.908;2023-03-13T01:36:24;88980.50;;;3.07;87.98
72585;BME280;60618;40.084;32.908;2023-03-13T01:38:54;88970.81;;;3.04;89.17
72585;BME280;60618;40.084;32.908;2023-03-13T01:41:23;88976.41;;;2.97;88.62
72585;BME280;60618;40.084;32.908;2023-03-13T01:43:50;88983.25;;;2.95;88.60
72585;BME280;60618;40.084;32.908;2023-03-13T01:46:22;88995.22;;;2.87;89.37
72585;BME280;60618;40.084;32.908;2023-03-13T01:49:03;88996.53;;;2.82;89.42
72585;BME280;60618;40.084;32.908;2023-03-13T01:51:39;89005.69;;;2.77;90.35
72585;BME280;60618;40.084;32.908;2023-03-13T01:54:14;88998.25;;;2.76;90.40
72585;BME280;60618;40.084;32.908;2023-03-13T01:56:47;89002.66;;;2.79;91.19
72585;BME280;60618;40.084;32.908;2023-03-13T01:59:23;88998.56;;;2.87;90.09
72585;BME280;60618;40.084;32.908;2023-03-13T02:01:54;89003.97;;;2.83;89.69
72585;BME280;60618;40.084;32.908;2023-03-13T02:04:23;89006.03;;;2.79;90.07
72585;BME280;60618;40.084;32.908;2023-03-13T02:06:57;89017.41;;;2.76;90.22
72585;BME280;60618;40.084;32.908;2023-03-13T02:09:28;89015.50;;;2.77;90.33
72585;BME280;60618;40.084;32.908;2023-03-13T02:12:14;89019.03;;;2.83;90.53
72585;BME280;60618;40.084;32.908;2023-03-13T02:14:44;89022.09;;;2.81;89.56
72585;BME280;60618;40.084;32.908;2023-03-13T02:17:12;89020.31;;;2.78;89.75
72585;BME280;60618;40.084;32.908;2023-03-13T02:19:45;89024.09;;;2.77;89.37
72585;BME280;60618;40.084;32.908;2023-03-13T02:22:25;89018.44;;;2.79;89.60
72585;BME280;60618;40.084;32.908;2023-03-13T02:27:42;89023.41;;;2.86;89.52
72585;BME280;60618;40.084;32.908;2023-03-13T02:30:12;89031.28;;;2.86;88.59
72585;BME280;60618;40.084;32.908;2023-03-13T02:32:40;89035.81;;;2.85;89.21
72585;BME280;60618;40.084;32.908;2023-03-13T02:35:10;89033.81;;;2.90;88.77
72585;BME280;60618;40.084;32.908;2023-03-13T02:37:38;89036.56;;;2.86;88.92
72585;BME280;60618;40.084;32.908;2023-03-13T02:40:09;89032.47;;;2.85;89.25
72585;BME280;60618;40.084;32.908;2023-03-13T02:42:41;89040.38;;;2.94;89.56
72585;BME280;60618;40.084;32.908;2023-03-13T02:45:12;89031.91;;;2.99;89.55
72585;BME280;60618;40.084;32.908;2023-03-13T02:47:39;89043.75;;;3.04;88.00
72585;BME280;60618;40.084;32.908;2023-03-13T02:50:05;89045.53;;;3.16;87.93
72585;BME280;60618;40.084;32.908;2023-03-13T02:52:36;89047.44;;;3.06;87.51
72585;BME280;60618;40.084;32.908;2023-03-13T02:55:08;89048.44;;;3.09;86.62
72585;BME280;60618;40.084;32.908;2023-03-13T02:57:37;89046.09;;;3.02;86.54
72585;BME280;60618;40.084;32.908;2023-03-13T03:00:05;89047.44;;;3.06;84.72
72585;BME280;60618;40.084;32.908;2023-03-13T03:02:33;89045.66;;;3.03;83.24
72585;BME280;60618;40.084;32.908;2023-03-13T03:04:59;89048.28;;;3.03;83.89
72585;BME280;60618;40.084;32.908;2023-03-13T03:07:26;89058.34;;;2.96;84.12
72585;BME280;60618;40.084;32.908;2023-03-13T03:09:53;89055.41;;;2.94;84.18
72585;BME280;60618;40.084;32.908;2023-03-13T03:12:20;89042.44;;;2.99;83.01
72585;BME280;60618;40.084;32.908;2023-03-13T03:14:47;89049.56;;;2.90;81.62
72585;BME280;60618;40.084;32.908;2023-03-13T03:17:14;89056.16;;;2.94;82.59
72585;BME280;60618;40.084;32.908;2023-03-13T03:19:41;89066.22;;;2.87;81.93
72585;BME280;60618;40.084;32.908;2023-03-13T03:22:08;89055.28;;;2.88;82.56
72585;BME280;60618;40.084;32.908;2023-03-13T03:24:35;89059.03;;;2.87;82.69
72585;BME280;60618;40.084;32.908;2023-03-13T03:27:02;89062.25;;;2.82;82.82
72585;BME280;60618;40.084;32.908;2023-03-13T03:29:29;89066.22;;;2.87;82.31
72585;BME280;60618;40.084;32.908;2023-03-13T03:31:56;89064.00;;;2.85;82.74
72585;BME280;60618;40.084;32.908;2023-03-13T03:34:23;89075.16;;;2.89;82.09
72585;BME280;60618;40.084;32.908;2023-03-13T03:36:50;89068.44;;;2.88;81.68
72585;BME280;60618;40.084;32.908;2023-03-13T03:39:17;89062.56;;;2.84;81.67
72585;BME280;60618;40.084;32.908;2023-03-13T03:41:44;89061.28;;;2.89;82.19
72585;BME280;60618;40.084;32.908;2023-03-13T03:44:11;89066.09;;;2.90;81.67
72585;BME280;60618;40.084;32.908;2023-03-13T03:46:37;89065.19;;;2.84;80.86
72585;BME280;60618;40.084;32.908;2023-03-13T03:49:04;89066.94;;;2.87;80.91
72585;BME280;60618;40.084;32.908;2023-03-13T03:51:32;89065.94;;;2.94;81.58
72585;BME280;60618;40.084;32.908;2023-03-13T03:53:58;89068.13;;;2.95;82.18
72585;BME280;60618;40.084;32.908;2023-03-13T03:56:25;89069.56;;;2.87;81.26
72585;BME280;60618;40.084;32.908;2023-03-13T03:58:52;89072.81;;;2.91;81.62
72585;BME280;60618;40.084;32.908;2023-03-13T04:01:19;89074.00;;;2.99;81.27
72585;BME280;60618;40.084;32.908;2023-03-13T04:03:46;89076.34;;;2.97;81.47
72585;BME280;60618;40.084;32.908;2023-03-13T04:06:13;89079.97;;;2.91;80.76
72585;BME280;60618;40.084;32.908;2023-03-13T04:08:40;89069.63;;;3.05;80.96
72585;BME280;60618;40.084;32.908;2023-03-13T04:11:07;89090.09;;;3.10;81.27
72585;BME280;60618;40.084;32.908;2023-03-13T04:13:34;89073.00;;;3.06;80.99
72585;BME280;60618;40.084;32.908;2023-03-13T04:16:06;89074.94;;;3.15;80.45
72585;BME280;60618;40.084;32.908;2023-03-13T04:18:33;89092.72;;;3.10;80.45
72585;BME280;60618;40.084;32.908;2023-03-13T04:21:01;89089.50;;;3.06;80.47
72585;BME280;60618;40.084;32.908;2023-03-13T04:23:28;89082.22;;;3.20;80.50
72585;BME280;60618;40.084;32.908;2023-03-13T04:25:55;89080.75;;;3.09;80.52
72585;BME280;60618;40.084;32.908;2023-03-13T04:28:22;89091.25;;;3.00;80.76
72585;BME280;60618;40.084;32.908;2023-03-13T04:30:49;89092.56;;;3.05;80.68
72585;BME280;60618;40.084;32.908;2023-03-13T04:33:16;89094.44;;;2.95;81.52
72585;BME280;60618;40.084;32.908;2023-03-13T04:35:43;89102.31;;;2.95;82.56
72585;BME280;60618;40.084;32.908;2023-03-13T04:38:10;89094.44;;;2.95;83.15
72585;BME280;60618;40.084;32.908;2023-03-13T04:40:37;89100.88;;;2.94;82.65
72585;BME280;60618;40.084;32.908;2023-03-13T04:43:04;89099.38;;;2.84;82.00
72585;BME280;60618;40.084;32.908;2023-03-13T04:45:31;89091.19;;;2.82;81.94
72585;BME280;60618;40.084;32.908;2023-03-13T04:47:58;89104.03;;;2.80;81.16
72585;BME280;60618;40.084;32.908;2023-03-13T04:50:25;89096.16;;;2.80;81.67
72585;BME280;60618;40.084;32.908;2023-03-13T04:52:51;89098.34;;;2.81;82.15
72585;BME280;60618;40.084;32.908;2023-03-13T04:55:19;89103.03;;;2.87;82.86
72585;BME280;60618;40.084;32.908;2023-03-13T04:57:46;89104.63;;;2.84;82.30
72585;BME280;60618;40.084;32.908;2023-03-13T05:00:13;89102.28;;;2.86;81.54
72585;BME280;60618;40.084;32.908;2023-03-13T05:02:40;89105.97;;;2.89;81.14
72585;BME280;60618;40.084;32.908;2023-03-13T05:05:07;89096.75;;;2.84;81.30
72585;BME280;60618;40.084;32.908;2023-03-13T05:07:34;89104.81;;;2.90;81.31
72585;BME280;60618;40.084;32.908;2023-03-13T05:10:01;89103.34;;;2.89;82.14
72585;BME280;60618;40.084;32.908;2023-03-13T05:12:28;89097.94;;;2.92;81.41
72585;BME280;60618;40.084;32.908;2023-03-13T05:14:55;89112.25;;;2.91;81.65
72585;BME280;60618;40.084;32.908;2023-03-13T05:17:22;89100.00;;;2.97;80.98
72585;BME280;60618;40.084;32.908;2023-03-13T05:19:48;89105.81;;;2.92;80.67
72585;BME280;60618;40.084;32.908;2023-03-13T05:22:15;89099.69;;;2.95;79.48
72585;BME280;60618;40.084;32.908;2023-03-13T05:24:42;89100.75;;;2.98;80.42
72585;BME280;60618;40.084;32.908;2023-03-13T05:27:09;89107.16;;;2.97;79.40
72585;BME280;60618;40.084;32.908;2023-03-13T05:29:36;89112.00;;;2.98;80.23
72585;BME280;60618;40.084;32.908;2023-03-13T05:32:03;89112.44;;;2.97;80.10
72585;BME280;60618;40.084;32.908;2023-03-13T05:34:30;89111.81;;;2.93;81.14
72585;BME280;60618;40.084;32.908;2023-03-13T05:36:57;89111.69;;;2.96;82.50
72585;BME280;60618;40.084;32.908;2023-03-13T05:39:24;89118.69;;;2.90;81.68
72585;BME280;60618;40.084;32.908;2023-03-13T05:41:51;89114.00;;;2.94;81.94
72585;BME280;60618;40.084;32.908;2023-03-13T05:44:18;89130.69;;;3.00;82.13
72585;BME280;60618;40.084;32.908;2023-03-13T05:46:45;89135.97;;;3.00;82.42
72585;BME280;60618;40.084;32.908;2023-03-13T05:49:12;89140.34;;;3.03;82.80
72585;BME280;60618;40.084;32.908;2023-03-13T05:51:39;89142.69;;;3.01;82.39
72585;BME280;60618;40.084;32.908;2023-03-13T05:54:06;89148.97;;;3.04;81.72
72585;BME280;60618;40.084;32.908;2023-03-13T05:56:33;89142.72;;;3.10;84.12
72585;BME280;60618;40.084;32.908;2023-03-13T05:59:00;89143.31;;;3.15;83.45
72585;BME280;60618;40.084;32.908;2023-03-13T06:01:27;89146.50;;;3.09;82.46
72585;BME280;60618;40.084;32.908;2023-03-13T06:03:53;89147.09;;;3.13;82.21
72585;BME280;60618;40.084;32.908;2023-03-13T06:06:20;89151.22;;;3.15;82.41
72585;BME280;60618;40.084;32.908;2023-03-13T06:08:47;89153.25;;;3.10;81.38
72585;BME280;60618;40.084;32.908;2023-03-13T06:11:14;89151.81;;;3.19;81.26
72585;BME280;60618;40.084;32.908;2023-03-13T06:13:41;89152.34;;;3.13;81.19
72585;BME280;60618;40.084;32.908;2023-03-13T06:16:08;89156.34;;;3.18;81.97
72585;BME280;60618;40.084;32.908;2023-03-13T06:18:35;89161.88;;;3.20;82.68
72585;BME280;60618;40.084;32.908;2023-03-13T06:21:02;89159.16;;;3.33;82.35
72585;BME280;60618;40.084;32.908;2023-03-13T06:23:29;89143.38;;;3.33;81.71
72585;BME280;60618;40.084;32.908;2023-03-13T06:25:56;89144.28;;;3.48;81.38
72585;BME280;60618;40.084;32.908;2023-03-13T06:28:23;89151.59;;;3.53;80.98
72585;BME280;60618;40.084;32.908;2023-03-13T06:30:50;89159.66;;;3.59;82.47
72585;BME280;60618;40.084;32.908;2023-03-13T06:33:17;89157.03;;;3.68;81.97
72585;BME280;60618;40.084;32.908;2023-03-13T06:35:44;89153.25;;;3.78;82.02
72585;BME280;60618;40.084;32.908;2023-03-13T06:38:26;89161.31;;;3.93;81.52
72585;BME280;60618;40.084;32.908;2023-03-13T06:40:53;89170.69;;;4.03;80.02
72585;BME280;60618;40.084;32.908;2023-03-13T06:43:20;89144.31;;;4.03;79.28
72585;BME280;60618;40.084;32.908;2023-03-13T06:45:48;89148.41;;;4.04;78.35
72585;BME280;60618;40.084;32.908;2023-03-13T06:48:15;89147.84;;;4.18;78.91
72585;BME280;60618;40.084;32.908;2023-03-13T06:50:42;89137.88;;;4.50;80.07
72585;BME280;60618;40.084;32.908;2023-03-13T06:53:17;89146.91;;;4.67;77.97
72585;BME280;60618;40.084;32.908;2023-03-13T06:55:45;89159.22;;;4.61;77.82
72585;BME280;60618;40.084;32.908;2023-03-13T06:58:13;89155.13;;;4.60;78.83
72585;BME280;60618;40.084;32.908;2023-03-13T07:00:57;89164.94;;;4.69;79.95
72585;BME280;60618;40.084;32.908;2023-03-13T07:03:24;89148.06;;;4.66;79.27
72585;BME280;60618;40.084;32.908;2023-03-13T07:05:58;89154.00;;;4.43;77.67
72585;BME280;60618;40.084;32.908;2023-03-13T07:08:26;89149.91;;;4.33;80.03
72585;BME280;60618;40.084;32.908;2023-03-13T07:10:56;89166.56;;;4.30;79.31
72585;BME280;60618;40.084;32.908;2023-03-13T07:13:24;89154.88;;;4.21;79.03
72585;BME280;60618;40.084;32.908;2023-03-13T07:15:51;89167.47;;;4.17;80.99
72585;BME280;60618;40.084;32.908;2023-03-13T07:18:17;89169.94;;;4.12;78.80
72585;BME280;60618;40.084;32.908;2023-03-13T07:20:51;89180.94;;;4.10;79.20
72585;BME280;60618;40.084;32.908;2023-03-13T07:23:18;89168.78;;;4.13;79.65
72585;BME280;60618;40.084;32.908;2023-03-13T07:25:55;89171.00;;;4.14;79.61
72585;BME280;60618;40.084;32.908;2023-03-13T07:28:23;89181.81;;;4.07;80.02
72585;BME280;60618;40.084;32.908;2023-03-13T07:30:50;89172.13;;;4.04;79.15
72585;BME280;60618;40.084;32.908;2023-03-13T07:33:17;89189.56;;;4.11;80.54
72585;BME280;60618;40.084;32.908;2023-03-13T07:35:51;89178.91;;;4.14;80.88
72585;BME280;60618;40.084;32.908;2023-03-13T07:38:19;89181.22;;;4.03;79.12
72585;BME280;60618;40.084;32.908;2023-03-13T07:40:54;89185.59;;;3.88;79.98
72585;BME280;60618;40.084;32.908;2023-03-13T07:43:22;89180.34;;;3.79;80.82
72585;BME280;60618;40.084;32.908;2023-03-13T07:45:54;89194.34;;;3.76;81.76
72585;BME280;60618;40.084;32.908;2023-03-13T07:48:23;89184.41;;;3.70;80.98
72585;BME280;60618;40.084;32.908;2023-03-13T07:50:53;89183.09;;;3.75;82.23
72585;BME280;60618;40.084;32.908;2023-03-13T07:53:20;89179.25;;;3.67;83.16
72585;BME280;60618;40.084;32.908;2023-03-13T07:56:09;89157.47;;;3.66;82.22
72585;BME280;60618;40.084;32.908;2023-03-13T07:58:38;89158.16;;;3.49;81.84
72585;BME280;60618;40.084;32.908;2023-03-13T08:01:14;89172.06;;;3.49;83.07
72585;BME280;60618;40.084;32.908;2023-03-13T08:03:42;89155.53;;;3.49;82.53
72585;BME280;60618;40.084;32.908;2023-03-13T08:06:12;89165.31;;;3.39;84.23
72585;BME280;60618;40.084;32.908;2023-03-13T08:08:39;89166.22;;;3.45;85.93
72585;BME280;60618;40.084;32.908;2023-03-13T08:11:12;89158.31;;;3.45;84.22
72585;BME280;60618;40.084;32.908;2023-03-13T08:13:41;89167.66;;;3.37;84.40
72585;BME280;60618;40.084;32.908;2023-03-13T08:16:15;89151.41;;;3.29;84.48
72585;BME280;60618;40.084;32.908;2023-03-13T08:18:44;89156.22;;;3.31;83.51
72585;BME280;60618;40.084;32.908;2023-03-13T08:21:25;89154.22;;;3.44;82.48
72585;BME280;60618;40.084;32.908;2023-03-13T08:23:58;89151.59;;;3.53;83.51
72585;BME280;60618;40.084;32.908;2023-03-13T08:26:27;89141.38;;;3.55;83.19
72585;BME280;60618;40.084;32.908;2023-03-13T08:28:59;89164.34;;;3.55;82.54
72585;BME280;60618;40.084;32.908;2023-03-13T08:31:30;89163.31;;;3.61;84.16
72585;BME280;60618;40.084;32.908;2023-03-13T08:33:57;89160.38;;;3.59;83.18
72585;BME280;60618;40.084;32.908;2023-03-13T08:36:31;89163.31;;;3.61;84.42
72585;BME280;60618;40.084;32.908;2023-03-13T08:39:01;89152.19;;;3.66;85.12
72585;BME280;60618;40.084;32.908;2023-03-13T08:41:32;89150.75;;;3.65;84.98
72585;BME280;60618;40.084;32.908;2023-03-13T08:43:59;89159.66;;;3.59;84.59
72585;BME280;60618;40.084;32.908;2023-03-13T08:46:28;89163.59;;;3.54;85.62
72585;BME280;60618;40.084;32.908;2023-03-13T08:48:55;89171.16;;;3.34;85.55
72585;BME280;60618;40.084;32.908;2023-03-13T08:51:24;89174.63;;;3.31;86.73
72585;BME280;60618;40.084;32.908;2023-03-13T08:57:29;89158.25;;;3.27;87.58
72585;BME280;60618;40.084;32.908;2023-03-13T08:59:55;89180.88;;;3.15;88.52
72585;BME280;60618;40.084;32.908;2023-03-13T09:02:22;89160.56;;;3.16;88.58
72585;BME280;60618;40.084;32.908;2023-03-13T09:04:49;89151.38;;;3.20;88.75
72585;BME280;60618;40.084;32.908;2023-03-13T09:07:16;89151.97;;;3.24;88.95
72585;BME280;60618;40.084;32.908;2023-03-13T09:09:43;89151.38;;;3.20;88.50
72585;BME280;60618;40.084;32.908;2023-03-13T09:12:10;89156.78;;;3.17;88.15
72585;BME280;60618;40.084;32.908;2023-03-13T09:14:55;89169.16;;;3.07;88.27
72585;BME280;60618;40.084;32.908;2023-03-13T09:17:22;89154.41;;;3.09;89.47
72585;BME280;60618;40.084;32.908;2023-03-13T09:19:49;89158.66;;;3.07;89.21
72585;BME280;60618;40.084;32.908;2023-03-13T09:22:26;89146.81;;;3.11;89.63
72585;BME280;60618;40.084;32.908;2023-03-13T09:24:53;89130.13;;;3.05;89.12
72585;BME280;60618;40.084;32.908;2023-03-13T09:27:20;89136.72;;;3.10;89.74
72585;BME280;60618;40.084;32.908;2023-03-13T09:29:47;89139.78;;;3.08;89.65
72585;BME280;60618;40.084;32.908;2023-03-13T09:32:14;89146.25;;;3.17;90.79
72585;BME280;60618;40.084;32.908;2023-03-13T09:34:40;89141.25;;;3.09;90.08
72585;BME280;60618;40.084;32.908;2023-03-13T09:37:07;89135.53;;;3.02;89.63
72585;BME280;60618;40.084;32.908;2023-03-13T09:39:35;89140.06;;;3.01;90.04
72585;BME280;60618;40.084;32.908;2023-03-13T09:42:17;89136.53;;;3.04;89.21
72585;BME280;60618;40.084;32.908;2023-03-13T09:45:12;89145.91;;;3.05;89.29
72585;BME280;60618;40.084;32.908;2023-03-13T09:47:49;89134.81;;;3.10;89.65
72585;BME280;60618;40.084;32.908;2023-03-13T09:50:28;89129.72;;;3.16;89.51
72585;BME280;60618;40.084;32.908;2023-03-13T09:53:04;89138.91;;;3.11;88.65
72585;BME280;60618;40.084;32.908;2023-03-13T09:55:35;89154.69;;;3.11;88.61
72585;BME280;60618;40.084;32.908;2023-03-13T09:58:13;89138.31;;;3.07;88.58
72585;BME280;60618;40.084;32.908;2023-03-13T10:00:50;89147.81;;;3.05;88.76
72585;BME280;60618;40.084;32.908;2023-03-13T10:03:22;89137.16;;;3.08;88.91
72585;BME280;60618;40.084;32.908;2023-03-13T10:05:59;89141.66;;;2.99;88.18
72585;BME280;60618;40.084;32.908;2023-03-13T10:08:31;89147.31;;;2.88;88.06
72585;BME280;60618;40.084;32.908;2023-03-13T10:11:28;89147.91;;;2.92;88.19
72585;BME280;60618;40.084;32.908;2023-03-13T10:14:05;89147.91;;;2.92;87.54
72585;BME280;60618;40.084;32.908;2023-03-13T10:16:56;89141.44;;;2.84;86.04
72585;BME280;60618;40.084;32.908;2023-03-13T10:19:31;89147.31;;;2.88;87.27
72585;BME280;60618;40.084;32.908;2023-03-13T10:22:01;89140.56;;;2.87;87.17
72585;BME280;60618;40.084;32.908;2023-03-13T10:24:36;89140.44;;;2.91;88.16
72585;BME280;60618;40.084;32.908;2023-03-13T10:27:08;89154.00;;;2.80;87.70
72585;BME280;60618;40.084;32.908;2023-03-13T10:29:35;89157.19;;;2.75;87.79
72585;BME280;60618;40.084;32.908;2023-03-13T10:32:04;89148.38;;;2.69;87.86
72585;BME280;60618;40.084;32.908;2023-03-13T10:34:55;89149.53;;;2.68;87.73
72585;BME280;60618;40.084;32.908;2023-03-13T10:39:51;89143.22;;;2.56;88.85
72585;BME280;60618;40.084;32.908;2023-03-13T10:42:30;89146.75;;;2.62;89.20
72585;BME280;60618;40.084;32.908;2023-03-13T10:45:00;89144.25;;;2.59;89.26
72585;BME280;60618;40.084;32.908;2023-03-13T10:47:32;89132.59;;;2.69;90.18
72585;BME280;60618;40.084;32.908;2023-03-13T10:50:00;89134.09;;;2.70;89.14
72585;BME280;60618;40.084;32.908;2023-03-13T10:52:35;89129.97;;;2.69;87.70
72585;BME280;60618;40.084;32.908;2023-03-13T10:55:11;89125.34;;;2.73;89.87
72585;BME280;60618;40.084;32.908;2023-03-13T10:57:41;89134.50;;;2.68;88.84
72585;BME280;60618;40.084;32.908;2023-03-13T11:00:40;89123.63;;;2.79;88.96
72585;BME280;60618;40.084;32.908;2023-03-13T11:03:16;89120.66;;;2.77;88.35
72585;BME280;60618;40.084;32.908;2023-03-13T11:05:59;89120.38;;;2.75;88.04
72585;BME280;60618;40.084;32.908;2023-03-13T11:08:32;89115.28;;;2.80;88.45
72585;BME280;60618;40.084;32.908;2023-03-13T11:11:02;89111.34;;;2.85;88.81
72585;BME280;60618;40.084;32.908;2023-03-13T11:13:32;89106.06;;;2.76;86.73
72585;BME280;60618;40.084;32.908;2023-03-13T11:16:23;89112.22;;;2.82;88.10
72585;BME280;60618;40.084;32.908;2023-03-13T11:21:58;89108.44;;;2.83;86.74
72585;BME280;60618;40.084;32.908;2023-03-13T11:24:45;89113.41;;;2.81;85.59
72585;BME280;60618;40.084;32.908;2023-03-13T11:27:39;89111.22;;;2.89;86.59
72585;BME280;60618;40.084;32.908;2023-03-13T11:32:51;89109.03;;;2.96;86.58
72585;BME280;60618;40.084;32.908;2023-03-13T11:38:38;89110.28;;;3.13;84.95
72585;BME280;60618;40.084;32.908;2023-03-13T11:46:55;89114.34;;;3.05;81.63
72585;BME280;60618;40.084;32.908;2023-03-13T11:49:54;89097.69;;;2.99;82.07
72585;BME280;60618;40.084;32.908;2023-03-13T11:52:39;89110.09;;;2.99;82.46
72585;BME280;60618;40.084;32.908;2023-03-13T12:00:36;89097.06;;;2.95;83.23
72585;BME280;60618;40.084;32.908;2023-03-13T12:03:30;89097.97;;;3.01;84.02
72585;BME280;60618;40.084;32.908;2023-03-13T12:06:02;89096.66;;;2.97;83.56
72585;BME280;60618;40.084;32.908;2023-03-13T12:08:42;89093.25;;;2.96;83.98
72585;BME280;60618;40.084;32.908;2023-03-13T12:16:55;89119.69;;;2.83;85.86
72585;BME280;60618;40.084;32.908;2023-03-13T12:22:47;89104.16;;;2.76;87.34
72585;BME280;60618;40.084;32.908;2023-03-13T12:27:51;89113.41;;;2.81;87.54
72585;BME280;60618;40.084;32.908;2023-03-13T12:30:34;89120.06;;;2.73;87.43
72585;BME280;60618;40.084;32.908;2023-03-13T12:33:20;89122.41;;;2.71;88.95
72585;BME280;60618;40.084;32.908;2023-03-13T12:36:19;89112.16;;;2.64;88.99
72585;BME280;60618;40.084;32.908;2023-03-13T12:41:27;89129.44;;;2.43;89.30
72585;BME280;60618;40.084;32.908;2023-03-13T12:43:56;89123.13;;;2.40;90.21
72585;BME280;60618;40.084;32.908;2023-03-13T12:46:38;89111.16;;;2.39;91.06
72585;BME280;60618;40.084;32.908;2023-03-13T12:52:34;89118.28;;;2.39;91.76
72585;BME280;60618;40.084;32.908;2023-03-13T12:55:22;89119.53;;;2.25;91.90
72585;BME280;60618;40.084;32.908;2023-03-13T12:58:10;89114.28;;;2.25;93.01
72585;BME280;60618;40.084;32.908;2023-03-13T13:00:41;89123.31;;;2.24;93.00
72585;BME280;60618;40.084;32.908;2023-03-13T13:03:29;89125.34;;;2.20;93.12
72585;BME280;60618;40.084;32.908;2023-03-13T13:06:16;89113.91;;;2.14;92.40
72585;BME280;60618;40.084;32.908;2023-03-13T13:17:23;89127.38;;;2.16;94.04
72585;BME280;60618;40.084;32.908;2023-03-13T13:19:48;89123.25;;;2.15;94.72
72585;BME280;60618;40.084;32.908;2023-03-13T13:25:26;89125.94;;;2.02;93.78
72585;BME280;60618;40.084;32.908;2023-03-13T13:27:54;89121.13;;;2.01;94.56
72585;BME280;60618;40.084;32.908;2023-03-13T13:32:50;89117.63;;;2.04;95.53
72585;BME280;60618;40.084;32.908;2023-03-13T13:35:33;89121.72;;;2.05;95.81
72585;BME280;60618;40.084;32.908;2023-03-13T13:38:20;89124.66;;;2.07;96.26
72585;BME280;60618;40.084;32.908;2023-03-13T13:41:02;89131.63;;;2.01;96.02
72585;BME280;60618;40.084;32.908;2023-03-13T13:43:33;89138.34;;;2.02;96.07
72585;BME280;60618;40.084;32.908;2023-03-13T13:46:04;89133.69;;;2.06;96.41
72585;BME280;60618;40.084;32.908;2023-03-13T13:48:44;89129.44;;;1.99;96.58
72585;BME280;60618;40.084;32.908;2023-03-13T13:53:45;89130.91;;;2.00;97.18
72585;BME280;60618;40.084;32.908;2023-03-13T13:56:33;89123.25;;;1.93;96.50
72585;BME280;60618;40.084;32.908;2023-03-13T13:59:04;89116.66;;;1.88;96.31
72585;BME280;60618;40.084;32.908;2023-03-13T14:01:33;89118.38;;;1.82;97.05
72585;BME280;60618;40.084;32.908;2023-03-13T14:04:12;89119.94;;;1.80;97.55
72585;BME280;60618;40.084;32.908;2023-03-13T14:06:44;89121.03;;;1.69;97.58
72585;BME280;60618;40.084;32.908;2023-03-13T14:12:33;89126.34;;;1.57;98.18
72585;BME280;60618;40.084;32.908;2023-03-13T14:15:23;89118.91;;;1.42;98.16
72585;BME280;60618;40.084;32.908;2023-03-13T14:17:54;89110.31;;;1.42;98.49
72585;BME280;60618;40.084;32.908;2023-03-13T14:22:58;89107.38;;;1.40;99.37
72585;BME280;60618;40.084;32.908;2023-03-13T14:25:39;89104.22;;;1.45;99.84
72585;BME280;60618;40.084;32.908;2023-03-13T14:28:18;89114.22;;;1.37;100.00
72585;BME280;60618;40.084;32.908;2023-03-13T14:30:47;89112.13;;;1.32;99.36